sensor_id;sensor_type;location;lat;lon;timestamp;temperature;humidity
21502;DHT22;27639;48.674;9.242;2022-10-16T00:01:17;19.70;66.90
21502;DHT22;27639;48.674;9.242;2022-10-16T00:03:44;19.70;66.90
21502;DHT22;27639;48.674;9.242;2022-10-16T00:06:11;19.70;67.00
21502;DHT22;27639;48.674;9.242;2022-10-16T00:08:38;19.70;66.90
21502;DHT22;27639;48.674;9.242;2022-10-16T00:11:16;19.70;66.90
21502;DHT22;27639;48.674;9.242;2022-10-16T00:13:44;19.70;66.80
21502;DHT22;27639;48.674;9.242;2022-10-16T00:16:10;19.70;66.90
21502;DHT22;27639;48.674;9.242;2022-10-16T00:18:37;19.70;66.90
21502;DHT22;27639;48.674;9.242;2022-10-16T00:21:11;19.70;66.80
21502;DHT22;27639;48.674;9.242;2022-10-16T00:23:37;19.70;66.60
21502;DHT22;27639;48.674;9.242;2022-10-16T00:26:06;19.70;66.90
21502;DHT22;27639;48.674;9.242;2022-10-16T00:28:32;19.60;66.80
21502;DHT22;27639;48.674;9.242;2022-10-16T00:30:58;19.60;66.80
21502;DHT22;27639;48.674;9.242;2022-10-16T00:33:24;19.60;67.00
21502;DHT22;27639;48.674;9.242;2022-10-16T00:35:50;19.60;67.10
21502;DHT22;27639;48.674;9.242;2022-10-16T00:38:16;19.50;67.00
21502;DHT22;27639;48.674;9.242;2022-10-16T00:40:42;19.50;67.10
21502;DHT22;27639;48.674;9.242;2022-10-16T00:49:10;19.20;67.50
21502;DHT22;27639;48.674;9.242;2022-10-16T00:51:39;19.10;67.30
21502;DHT22;27639;48.674;9.242;2022-10-16T00:54:29;19.10;67.90
21502;DHT22;27639;48.674;9.242;2022-10-16T00:56:57;19.10;68.00
21502;DHT22;27639;48.674;9.242;2022-10-16T00:59:29;19.10;68.10
21502;DHT22;27639;48.674;9.242;2022-10-16T01:01:56;19.20;68.10
21502;DHT22;27639;48.674;9.242;2022-10-16T01:04:23;19.20;68.10
21502;DHT22;27639;48.674;9.242;2022-10-16T01:12:38;19.00;68.00
21502;DHT22;27639;48.674;9.242;2022-10-16T01:15:10;19.00;68.10
21502;DHT22;27639;48.674;9.242;2022-10-16T01:17:45;19.00;68.30
21502;DHT22;27639;48.674;9.242;2022-10-16T01:20:24;19.00;68.20
21502;DHT22;27639;48.674;9.242;2022-10-16T01:31:27;18.80;68.40
21502;DHT22;27639;48.674;9.242;2022-10-16T01:34:18;18.80;68.60
21502;DHT22;27639;48.674;9.242;2022-10-16T01:36:53;18.90;68.40
21502;DHT22;27639;48.674;9.242;2022-10-16T01:39:24;18.90;68.50
21502;DHT22;27639;48.674;9.242;2022-10-16T01:42:12;19.00;68.50
21502;DHT22;27639;48.674;9.242;2022-10-16T01:44:39;19.00;68.20
21502;DHT22;27639;48.674;9.242;2022-10-16T01:47:09;19.00;68.40
21502;DHT22;27639;48.674;9.242;2022-10-16T01:49:37;19.00;68.00
21502;DHT22;27639;48.674;9.242;2022-10-16T01:52:06;19.00;67.90
21502;DHT22;27639;48.674;9.242;2022-10-16T01:54:35;19.00;68.00
21502;DHT22;27639;48.674;9.242;2022-10-16T01:57:04;18.90;68.10
21502;DHT22;27639;48.674;9.242;2022-10-16T01:59:31;18.80;68.30
21502;DHT22;27639;48.674;9.242;2022-10-16T02:02:05;18.80;68.60
21502;DHT22;27639;48.674;9.242;2022-10-16T02:04:53;18.70;68.50
21502;DHT22;27639;48.674;9.242;2022-10-16T02:07:20;18.70;68.60
21502;DHT22;27639;48.674;9.242;2022-10-16T02:09:46;18.70;69.00
21502;DHT22;27639;48.674;9.242;2022-10-16T02:12:32;18.80;69.10
21502;DHT22;27639;48.674;9.242;2022-10-16T02:14:58;18.80;68.60
21502;DHT22;27639;48.674;9.242;2022-10-16T02:17:24;18.80;69.10
21502;DHT22;27639;48.674;9.242;2022-10-16T02:19:52;18.80;69.10
21502;DHT22;27639;48.674;9.242;2022-10-16T02:22:43;18.80;69.10
21502;DHT22;27639;48.674;9.242;2022-10-16T02:25:22;18.80;68.80
21502;DHT22;27639;48.674;9.242;2022-10-16T02:30:49;18.80;69.10
21502;DHT22;27639;48.674;9.242;2022-10-16T02:33:16;18.80;69.10
21502;DHT22;27639;48.674;9.242;2022-10-16T02:35:45;18.80;69.10
21502;DHT22;27639;48.674;9.242;2022-10-16T02:38:12;18.80;69.10
21502;DHT22;27639;48.674;9.242;2022-10-16T02:40:39;18.80;69.10
21502;DHT22;27639;48.674;9.242;2022-10-16T02:43:05;18.80;69.80
21502;DHT22;27639;48.674;9.242;2022-10-16T02:45:32;18.80;69.10
21502;DHT22;27639;48.674;9.242;2022-10-16T02:47:57;18.80;69.10
21502;DHT22;27639;48.674;9.242;2022-10-16T02:50:23;18.80;69.10
21502;DHT22;27639;48.674;9.242;2022-10-16T02:52:50;18.80;69.10
21502;DHT22;27639;48.674;9.242;2022-10-16T02:55:16;18.90;69.20
21502;DHT22;27639;48.674;9.242;2022-10-16T02:57:41;18.90;69.20
21502;DHT22;27639;48.674;9.242;2022-10-16T03:00:11;18.90;69.20
21502;DHT22;27639;48.674;9.242;2022-10-16T03:02:37;18.90;69.00
21502;DHT22;27639;48.674;9.242;2022-10-16T03:05:03;18.90;69.00
21502;DHT22;27639;48.674;9.242;2022-10-16T03:07:29;19.00;68.90
21502;DHT22;27639;48.674;9.242;2022-10-16T03:09:54;19.00;68.80
21502;DHT22;27639;48.674;9.242;2022-10-16T03:12:21;18.90;68.70
21502;DHT22;27639;48.674;9.242;2022-10-16T03:14:47;18.90;68.80
21502;DHT22;27639;48.674;9.242;2022-10-16T03:17:12;18.80;68.90
21502;DHT22;27639;48.674;9.242;2022-10-16T03:19:38;18.80;69.00
21502;DHT22;27639;48.674;9.242;2022-10-16T03:22:04;18.80;69.10
21502;DHT22;27639;48.674;9.242;2022-10-16T03:24:29;18.80;69.20
21502;DHT22;27639;48.674;9.242;2022-10-16T03:26:55;18.70;69.20
21502;DHT22;27639;48.674;9.242;2022-10-16T03:29:21;18.70;69.20
21502;DHT22;27639;48.674;9.242;2022-10-16T03:31:46;18.70;69.30
21502;DHT22;27639;48.674;9.242;2022-10-16T03:34:13;18.70;69.20
21502;DHT22;27639;48.674;9.242;2022-10-16T03:36:39;18.80;69.30
21502;DHT22;27639;48.674;9.242;2022-10-16T03:39:05;18.80;69.30
21502;DHT22;27639;48.674;9.242;2022-10-16T03:41:30;18.80;69.30
21502;DHT22;27639;48.674;9.242;2022-10-16T03:43:56;18.70;69.20
21502;DHT22;27639;48.674;9.242;2022-10-16T03:46:21;18.70;69.20
21502;DHT22;27639;48.674;9.242;2022-10-16T03:48:47;18.70;69.50
21502;DHT22;27639;48.674;9.242;2022-10-16T03:51:12;18.60;69.40
21502;DHT22;27639;48.674;9.242;2022-10-16T03:53:38;18.60;69.50
21502;DHT22;27639;48.674;9.242;2022-10-16T03:56:04;18.60;69.60
21502;DHT22;27639;48.674;9.242;2022-10-16T03:58:29;18.60;69.60
21502;DHT22;27639;48.674;9.242;2022-10-16T04:00:55;18.60;69.60
21502;DHT22;27639;48.674;9.242;2022-10-16T04:03:21;18.60;69.60
21502;DHT22;27639;48.674;9.242;2022-10-16T04:05:46;18.60;69.60
21502;DHT22;27639;48.674;9.242;2022-10-16T04:08:12;18.60;69.60
21502;DHT22;27639;48.674;9.242;2022-10-16T04:10:38;18.60;69.60
21502;DHT22;27639;48.674;9.242;2022-10-16T04:13:03;18.60;69.60
21502;DHT22;27639;48.674;9.242;2022-10-16T04:15:29;18.60;69.60
21502;DHT22;27639;48.674;9.242;2022-10-16T04:17:54;18.60;69.80
21502;DHT22;27639;48.674;9.242;2022-10-16T04:20:20;18.50;69.70
21502;DHT22;27639;48.674;9.242;2022-10-16T04:22:46;18.50;69.80
21502;DHT22;27639;48.674;9.242;2022-10-16T04:25:11;18.50;70.00
21502;DHT22;27639;48.674;9.242;2022-10-16T04:27:38;18.50;70.00
21502;DHT22;27639;48.674;9.242;2022-10-16T04:30:03;18.60;70.00
21502;DHT22;27639;48.674;9.242;2022-10-16T04:32:29;18.60;70.00
21502;DHT22;27639;48.674;9.242;2022-10-16T04:34:55;18.60;69.80
21502;DHT22;27639;48.674;9.242;2022-10-16T04:37:24;18.50;69.90
21502;DHT22;27639;48.674;9.242;2022-10-16T04:39:51;18.50;70.00
21502;DHT22;27639;48.674;9.242;2022-10-16T04:42:16;18.50;70.20
21502;DHT22;27639;48.674;9.242;2022-10-16T04:44:42;18.40;71.00
21502;DHT22;27639;48.674;9.242;2022-10-16T04:47:07;18.50;70.30
21502;DHT22;27639;48.674;9.242;2022-10-16T04:49:33;18.50;70.30
21502;DHT22;27639;48.674;9.242;2022-10-16T04:51:59;18.50;70.30
21502;DHT22;27639;48.674;9.242;2022-10-16T04:54:24;18.50;70.10
21502;DHT22;27639;48.674;9.242;2022-10-16T04:56:50;18.60;70.10
21502;DHT22;27639;48.674;9.242;2022-10-16T04:59:18;18.60;70.10
21502;DHT22;27639;48.674;9.242;2022-10-16T05:01:44;18.60;70.00
21502;DHT22;27639;48.674;9.242;2022-10-16T05:04:10;18.60;69.90
21502;DHT22;27639;48.674;9.242;2022-10-16T05:06:36;18.60;69.80
21502;DHT22;27639;48.674;9.242;2022-10-16T05:09:02;18.60;69.70
21502;DHT22;27639;48.674;9.242;2022-10-16T05:11:28;18.60;69.80
21502;DHT22;27639;48.674;9.242;2022-10-16T05:13:53;18.60;69.80
21502;DHT22;27639;48.674;9.242;2022-10-16T05:16:19;18.60;69.80
21502;DHT22;27639;48.674;9.242;2022-10-16T05:18:44;18.50;69.80
21502;DHT22;27639;48.674;9.242;2022-10-16T05:21:10;18.50;69.90
21502;DHT22;27639;48.674;9.242;2022-10-16T05:23:35;18.40;69.90
21502;DHT22;27639;48.674;9.242;2022-10-16T05:26:01;18.40;70.20
21502;DHT22;27639;48.674;9.242;2022-10-16T05:28:30;18.40;70.20
21502;DHT22;27639;48.674;9.242;2022-10-16T05:30:56;18.40;70.20
21502;DHT22;27639;48.674;9.242;2022-10-16T05:33:23;18.40;70.20
21502;DHT22;27639;48.674;9.242;2022-10-16T05:35:50;18.40;70.20
21502;DHT22;27639;48.674;9.242;2022-10-16T05:38:19;18.30;70.10
21502;DHT22;27639;48.674;9.242;2022-10-16T05:40:51;18.30;70.00
21502;DHT22;27639;48.674;9.242;2022-10-16T05:43:21;18.30;70.00
21502;DHT22;27639;48.674;9.242;2022-10-16T05:45:57;18.30;70.20
21502;DHT22;27639;48.674;9.242;2022-10-16T05:48:24;18.30;70.10
21502;DHT22;27639;48.674;9.242;2022-10-16T05:50:57;18.30;70.10
21502;DHT22;27639;48.674;9.242;2022-10-16T05:53:23;18.30;70.00
21502;DHT22;27639;48.674;9.242;2022-10-16T05:55:57;18.40;70.10
21502;DHT22;27639;48.674;9.242;2022-10-16T05:58:24;18.30;70.00
21502;DHT22;27639;48.674;9.242;2022-10-16T06:01:01;18.30;70.10
21502;DHT22;27639;48.674;9.242;2022-10-16T06:03:27;18.30;70.00
21502;DHT22;27639;48.674;9.242;2022-10-16T06:05:53;18.30;70.10
21502;DHT22;27639;48.674;9.242;2022-10-16T06:08:21;18.30;70.10
21502;DHT22;27639;48.674;9.242;2022-10-16T06:10:47;18.40;70.20
21502;DHT22;27639;48.674;9.242;2022-10-16T06:13:13;18.40;70.10
21502;DHT22;27639;48.674;9.242;2022-10-16T06:15:40;18.40;70.20
21502;DHT22;27639;48.674;9.242;2022-10-16T06:18:09;18.30;70.10
21502;DHT22;27639;48.674;9.242;2022-10-16T06:20:36;18.20;70.00
21502;DHT22;27639;48.674;9.242;2022-10-16T06:23:02;18.20;70.10
21502;DHT22;27639;48.674;9.242;2022-10-16T06:25:30;18.20;70.30
21502;DHT22;27639;48.674;9.242;2022-10-16T06:27:55;18.10;70.40
21502;DHT22;27639;48.674;9.242;2022-10-16T06:30:21;18.20;71.50
21502;DHT22;27639;48.674;9.242;2022-10-16T06:32:46;18.20;70.80
21502;DHT22;27639;48.674;9.242;2022-10-16T06:35:12;18.30;70.90
21502;DHT22;27639;48.674;9.242;2022-10-16T06:37:37;18.30;70.90
21502;DHT22;27639;48.674;9.242;2022-10-16T06:40:03;18.40;70.90
21502;DHT22;27639;48.674;9.242;2022-10-16T06:42:30;18.40;70.90
21502;DHT22;27639;48.674;9.242;2022-10-16T06:44:55;18.40;71.00
21502;DHT22;27639;48.674;9.242;2022-10-16T06:47:21;18.40;71.20
21502;DHT22;27639;48.674;9.242;2022-10-16T06:49:46;18.40;71.80
21502;DHT22;27639;48.674;9.242;2022-10-16T06:52:12;18.40;72.40
21502;DHT22;27639;48.674;9.242;2022-10-16T06:54:37;18.50;72.70
21502;DHT22;27639;48.674;9.242;2022-10-16T06:57:03;18.60;73.00
21502;DHT22;27639;48.674;9.242;2022-10-16T06:59:28;18.80;73.00
21502;DHT22;27639;48.674;9.242;2022-10-16T07:01:54;18.90;72.20
21502;DHT22;27639;48.674;9.242;2022-10-16T07:04:20;19.00;71.70
21502;DHT22;27639;48.674;9.242;2022-10-16T07:06:45;19.10;71.40
21502;DHT22;27639;48.674;9.242;2022-10-16T07:09:11;19.10;70.90
21502;DHT22;27639;48.674;9.242;2022-10-16T07:11:39;19.10;70.60
21502;DHT22;27639;48.674;9.242;2022-10-16T07:14:08;19.10;70.60
21502;DHT22;27639;48.674;9.242;2022-10-16T07:16:37;19.10;70.50
21502;DHT22;27639;48.674;9.242;2022-10-16T07:19:03;19.10;70.70
21502;DHT22;27639;48.674;9.242;2022-10-16T07:21:31;19.00;70.80
21502;DHT22;27639;48.674;9.242;2022-10-16T07:24:00;19.00;70.80
21502;DHT22;27639;48.674;9.242;2022-10-16T07:26:28;19.00;70.80
21502;DHT22;27639;48.674;9.242;2022-10-16T07:28:53;19.00;70.80
21502;DHT22;27639;48.674;9.242;2022-10-16T07:31:20;19.00;70.80
21502;DHT22;27639;48.674;9.242;2022-10-16T07:33:47;19.00;70.80
21502;DHT22;27639;48.674;9.242;2022-10-16T07:36:14;19.10;70.90
21502;DHT22;27639;48.674;9.242;2022-10-16T07:38:40;19.20;71.00
21502;DHT22;27639;48.674;9.242;2022-10-16T07:41:14;19.20;70.90
21502;DHT22;27639;48.674;9.242;2022-10-16T07:43:44;19.20;70.90
21502;DHT22;27639;48.674;9.242;2022-10-16T07:46:10;19.20;71.00
21502;DHT22;27639;48.674;9.242;2022-10-16T07:48:36;19.20;71.00
21502;DHT22;27639;48.674;9.242;2022-10-16T07:51:03;19.30;71.20
21502;DHT22;27639;48.674;9.242;2022-10-16T07:53:30;19.30;71.20
21502;DHT22;27639;48.674;9.242;2022-10-16T07:56:06;19.40;70.90
21502;DHT22;27639;48.674;9.242;2022-10-16T07:58:33;19.40;70.80
21502;DHT22;27639;48.674;9.242;2022-10-16T08:00:58;19.30;71.00
21502;DHT22;27639;48.674;9.242;2022-10-16T08:03:25;19.30;71.10
21502;DHT22;27639;48.674;9.242;2022-10-16T08:05:50;19.30;71.20
21502;DHT22;27639;48.674;9.242;2022-10-16T08:08:17;19.30;71.20
21502;DHT22;27639;48.674;9.242;2022-10-16T08:10:43;19.40;71.30
21502;DHT22;27639;48.674;9.242;2022-10-16T08:13:09;19.40;71.30
21502;DHT22;27639;48.674;9.242;2022-10-16T08:15:35;19.40;71.30
21502;DHT22;27639;48.674;9.242;2022-10-16T08:18:04;19.50;71.40
21502;DHT22;27639;48.674;9.242;2022-10-16T08:20:31;19.50;71.40
21502;DHT22;27639;48.674;9.242;2022-10-16T08:22:57;19.50;71.40
21502;DHT22;27639;48.674;9.242;2022-10-16T08:25:23;19.60;71.50
21502;DHT22;27639;48.674;9.242;2022-10-16T08:27:49;19.60;71.40
21502;DHT22;27639;48.674;9.242;2022-10-16T08:30:15;19.70;71.40
21502;DHT22;27639;48.674;9.242;2022-10-16T08:32:41;19.80;71.60
21502;DHT22;27639;48.674;9.242;2022-10-16T08:35:11;19.90;71.60
21502;DHT22;27639;48.674;9.242;2022-10-16T08:37:38;19.90;71.70
21502;DHT22;27639;48.674;9.242;2022-10-16T08:40:06;20.00;71.90
21502;DHT22;27639;48.674;9.242;2022-10-16T08:45:29;20.10;71.70
21502;DHT22;27639;48.674;9.242;2022-10-16T08:48:17;20.20;71.80
21502;DHT22;27639;48.674;9.242;2022-10-16T08:50:43;20.30;71.60
21502;DHT22;27639;48.674;9.242;2022-10-16T08:53:17;20.40;71.60
21502;DHT22;27639;48.674;9.242;2022-10-16T08:55:52;20.50;71.20
21502;DHT22;27639;48.674;9.242;2022-10-16T08:58:20;20.50;71.00
21502;DHT22;27639;48.674;9.242;2022-10-16T09:00:59;20.50;70.90
21502;DHT22;27639;48.674;9.242;2022-10-16T09:08:44;20.70;69.80
21502;DHT22;27639;48.674;9.242;2022-10-16T09:11:39;20.80;70.00
21502;DHT22;27639;48.674;9.242;2022-10-16T09:17:42;20.90;69.00
21502;DHT22;27639;48.674;9.242;2022-10-16T09:20:28;21.00;68.90
21502;DHT22;27639;48.674;9.242;2022-10-16T09:25:45;21.20;67.50
21502;DHT22;27639;48.674;9.242;2022-10-16T09:28:13;21.20;67.40
21502;DHT22;27639;48.674;9.242;2022-10-16T09:30:39;21.20;67.20
21502;DHT22;27639;48.674;9.242;2022-10-16T09:33:05;21.30;66.30
21502;DHT22;27639;48.674;9.242;2022-10-16T09:35:50;21.30;66.20
21502;DHT22;27639;48.674;9.242;2022-10-16T09:38:42;21.40;65.70
21502;DHT22;27639;48.674;9.242;2022-10-16T09:41:15;21.40;66.00
21502;DHT22;27639;48.674;9.242;2022-10-16T09:44:00;21.50;66.10
21502;DHT22;27639;48.674;9.242;2022-10-16T09:46:32;21.60;66.20
21502;DHT22;27639;48.674;9.242;2022-10-16T09:49:01;21.80;66.40
21502;DHT22;27639;48.674;9.242;2022-10-16T09:51:44;22.00;66.30
21502;DHT22;27639;48.674;9.242;2022-10-16T09:54:18;22.10;65.60
21502;DHT22;27639;48.674;9.242;2022-10-16T09:56:44;22.30;65.00
21502;DHT22;27639;48.674;9.242;2022-10-16T09:59:15;22.30;65.10
21502;DHT22;27639;48.674;9.242;2022-10-16T10:01:52;22.40;64.30
21502;DHT22;27639;48.674;9.242;2022-10-16T10:04:23;22.70;63.80
21502;DHT22;27639;48.674;9.242;2022-10-16T10:06:51;22.80;63.30
21502;DHT22;27639;48.674;9.242;2022-10-16T10:09:23;23.00;62.70
21502;DHT22;27639;48.674;9.242;2022-10-16T10:12:00;23.10;62.00
21502;DHT22;27639;48.674;9.242;2022-10-16T10:14:37;23.20;61.30
21502;DHT22;27639;48.674;9.242;2022-10-16T10:17:09;23.40;61.50
21502;DHT22;27639;48.674;9.242;2022-10-16T10:19:46;23.50;60.80
21502;DHT22;27639;48.674;9.242;2022-10-16T10:24:56;23.70;59.70
21502;DHT22;27639;48.674;9.242;2022-10-16T10:27:28;23.80;59.00
21502;DHT22;27639;48.674;9.242;2022-10-16T10:32:37;24.00;58.80
21502;DHT22;27639;48.674;9.242;2022-10-16T10:41:40;24.60;57.40
21502;DHT22;27639;48.674;9.242;2022-10-16T10:44:26;24.70;56.40
21502;DHT22;27639;48.674;9.242;2022-10-16T10:47:31;24.80;55.30
21502;DHT22;27639;48.674;9.242;2022-10-16T10:58:45;25.20;53.70
21502;DHT22;27639;48.674;9.242;2022-10-16T11:01:16;25.20;53.60
21502;DHT22;27639;48.674;9.242;2022-10-16T11:09:23;25.50;52.80
21502;DHT22;27639;48.674;9.242;2022-10-16T11:17:26;25.80;52.00
21502;DHT22;27639;48.674;9.242;2022-10-16T11:19:58;25.90;52.50
21502;DHT22;27639;48.674;9.242;2022-10-16T11:22:32;26.00;52.40
21502;DHT22;27639;48.674;9.242;2022-10-16T11:25:02;26.10;51.90
21502;DHT22;27639;48.674;9.242;2022-10-16T11:27:50;26.10;52.10
21502;DHT22;27639;48.674;9.242;2022-10-16T11:30:21;26.20;51.50
21502;DHT22;27639;48.674;9.242;2022-10-16T11:41:00;26.30;50.70
21502;DHT22;27639;48.674;9.242;2022-10-16T11:45:58;26.40;50.80
21502;DHT22;27639;48.674;9.242;2022-10-16T11:48:35;26.40;50.40
21502;DHT22;27639;48.674;9.242;2022-10-16T11:53:52;26.50;50.30
21502;DHT22;27639;48.674;9.242;2022-10-16T11:56:21;26.70;50.40
21502;DHT22;27639;48.674;9.242;2022-10-16T12:01:47;26.70;48.10
21502;DHT22;27639;48.674;9.242;2022-10-16T12:04:16;26.70;49.50
21502;DHT22;27639;48.674;9.242;2022-10-16T12:06:57;26.80;49.40
21502;DHT22;27639;48.674;9.242;2022-10-16T12:09:30;26.90;48.90
21502;DHT22;27639;48.674;9.242;2022-10-16T12:11:57;27.00;48.60
21502;DHT22;27639;48.674;9.242;2022-10-16T12:17:23;27.10;48.50
21502;DHT22;27639;48.674;9.242;2022-10-16T12:22:51;27.10;48.20
21502;DHT22;27639;48.674;9.242;2022-10-16T12:25:24;27.00;48.80
21502;DHT22;27639;48.674;9.242;2022-10-16T12:30:43;27.10;48.70
21502;DHT22;27639;48.674;9.242;2022-10-16T12:33:26;27.20;48.60
21502;DHT22;27639;48.674;9.242;2022-10-16T12:35:53;27.20;47.70
21502;DHT22;27639;48.674;9.242;2022-10-16T12:38:36;27.10;47.20
21502;DHT22;27639;48.674;9.242;2022-10-16T12:41:05;27.20;47.80
21502;DHT22;27639;48.674;9.242;2022-10-16T12:43:42;27.30;47.20
21502;DHT22;27639;48.674;9.242;2022-10-16T12:48:34;27.40;47.00
21502;DHT22;27639;48.674;9.242;2022-10-16T12:54:19;27.40;47.10
21502;DHT22;27639;48.674;9.242;2022-10-16T12:59:38;27.30;47.20
21502;DHT22;27639;48.674;9.242;2022-10-16T13:16:19;27.00;47.60
21502;DHT22;27639;48.674;9.242;2022-10-16T13:21:57;27.00;47.40
21502;DHT22;27639;48.674;9.242;2022-10-16T13:30:20;27.10;47.40
21502;DHT22;27639;48.674;9.242;2022-10-16T13:32:48;27.10;47.20
21502;DHT22;27639;48.674;9.242;2022-10-16T13:35:27;27.10;47.30
21502;DHT22;27639;48.674;9.242;2022-10-16T13:38:27;27.10;47.40
21502;DHT22;27639;48.674;9.242;2022-10-16T13:40:58;27.10;47.20
21502;DHT22;27639;48.674;9.242;2022-10-16T13:43:39;27.10;47.20
21502;DHT22;27639;48.674;9.242;2022-10-16T13:46:06;27.10;47.30
21502;DHT22;27639;48.674;9.242;2022-10-16T13:48:33;27.00;47.40
21502;DHT22;27639;48.674;9.242;2022-10-16T13:53:35;27.00;47.00
21502;DHT22;27639;48.674;9.242;2022-10-16T13:56:03;27.00;47.50
21502;DHT22;27639;48.674;9.242;2022-10-16T13:58:30;27.00;47.30
21502;DHT22;27639;48.674;9.242;2022-10-16T14:00:58;27.00;47.40
21502;DHT22;27639;48.674;9.242;2022-10-16T14:03:24;27.00;47.00
21502;DHT22;27639;48.674;9.242;2022-10-16T14:05:54;27.00;47.30
21502;DHT22;27639;48.674;9.242;2022-10-16T14:08:21;27.00;47.10
21502;DHT22;27639;48.674;9.242;2022-10-16T14:10:49;26.90;47.10
21502;DHT22;27639;48.674;9.242;2022-10-16T14:13:18;26.90;47.20
21502;DHT22;27639;48.674;9.242;2022-10-16T14:15:47;26.90;47.20
21502;DHT22;27639;48.674;9.242;2022-10-16T14:18:21;26.90;47.10
21502;DHT22;27639;48.674;9.242;2022-10-16T14:20:49;26.90;48.20
21502;DHT22;27639;48.674;9.242;2022-10-16T14:23:22;26.80;48.50
21502;DHT22;27639;48.674;9.242;2022-10-16T14:25:49;26.70;48.80
21502;DHT22;27639;48.674;9.242;2022-10-16T14:28:22;26.60;48.50
21502;DHT22;27639;48.674;9.242;2022-10-16T14:30:57;26.60;48.40
21502;DHT22;27639;48.674;9.242;2022-10-16T14:33:33;26.40;47.70
21502;DHT22;27639;48.674;9.242;2022-10-16T14:36:06;26.40;47.90
21502;DHT22;27639;48.674;9.242;2022-10-16T14:38:38;26.40;48.00
21502;DHT22;27639;48.674;9.242;2022-10-16T14:41:04;26.50;48.10
21502;DHT22;27639;48.674;9.242;2022-10-16T14:43:41;26.50;47.70
21502;DHT22;27639;48.674;9.242;2022-10-16T14:46:19;26.50;47.70
21502;DHT22;27639;48.674;9.242;2022-10-16T14:48:50;26.50;48.20
21502;DHT22;27639;48.674;9.242;2022-10-16T14:51:19;26.50;48.40
21502;DHT22;27639;48.674;9.242;2022-10-16T14:53:46;26.50;49.10
21502;DHT22;27639;48.674;9.242;2022-10-16T14:56:21;26.40;49.30
21502;DHT22;27639;48.674;9.242;2022-10-16T14:58:47;26.40;49.60
21502;DHT22;27639;48.674;9.242;2022-10-16T15:01:14;26.40;50.20
21502;DHT22;27639;48.674;9.242;2022-10-16T15:03:40;26.40;50.60
21502;DHT22;27639;48.674;9.242;2022-10-16T15:06:14;26.40;50.80
21502;DHT22;27639;48.674;9.242;2022-10-16T15:08:40;26.40;50.80
21502;DHT22;27639;48.674;9.242;2022-10-16T15:11:12;26.40;50.80
21502;DHT22;27639;48.674;9.242;2022-10-16T15:13:39;26.40;50.80
21502;DHT22;27639;48.674;9.242;2022-10-16T15:16:11;26.30;51.30
21502;DHT22;27639;48.674;9.242;2022-10-16T15:18:37;26.30;51.20
21502;DHT22;27639;48.674;9.242;2022-10-16T15:21:03;26.30;51.10
21502;DHT22;27639;48.674;9.242;2022-10-16T15:23:28;26.20;50.70
21502;DHT22;27639;48.674;9.242;2022-10-16T15:25:55;26.20;50.50
21502;DHT22;27639;48.674;9.242;2022-10-16T15:28:22;26.20;50.60
21502;DHT22;27639;48.674;9.242;2022-10-16T15:30:53;26.20;50.60
21502;DHT22;27639;48.674;9.242;2022-10-16T15:33:25;26.20;50.40
21502;DHT22;27639;48.674;9.242;2022-10-16T15:35:52;26.20;50.50
21502;DHT22;27639;48.674;9.242;2022-10-16T15:38:20;26.00;50.60
21502;DHT22;27639;48.674;9.242;2022-10-16T15:40:50;26.00;50.80
21502;DHT22;27639;48.674;9.242;2022-10-16T15:43:16;26.00;50.50
21502;DHT22;27639;48.674;9.242;2022-10-16T15:45:41;26.00;50.40
21502;DHT22;27639;48.674;9.242;2022-10-16T15:48:11;26.00;50.60
21502;DHT22;27639;48.674;9.242;2022-10-16T15:50:37;26.00;50.60
21502;DHT22;27639;48.674;9.242;2022-10-16T15:53:03;26.00;51.00
21502;DHT22;27639;48.674;9.242;2022-10-16T15:55:29;25.90;51.20
21502;DHT22;27639;48.674;9.242;2022-10-16T15:57:55;25.80;51.50
21502;DHT22;27639;48.674;9.242;2022-10-16T16:00:22;25.70;51.70
21502;DHT22;27639;48.674;9.242;2022-10-16T16:02:51;25.70;52.30
21502;DHT22;27639;48.674;9.242;2022-10-16T16:05:17;25.60;52.70
21502;DHT22;27639;48.674;9.242;2022-10-16T16:07:43;25.60;52.80
21502;DHT22;27639;48.674;9.242;2022-10-16T16:10:10;25.50;53.10
21502;DHT22;27639;48.674;9.242;2022-10-16T16:12:36;25.50;53.40
21502;DHT22;27639;48.674;9.242;2022-10-16T16:15:05;25.40;53.80
21502;DHT22;27639;48.674;9.242;2022-10-16T16:17:32;25.30;53.30
21502;DHT22;27639;48.674;9.242;2022-10-16T16:19:58;25.30;53.20
21502;DHT22;27639;48.674;9.242;2022-10-16T16:22:23;25.20;53.40
21502;DHT22;27639;48.674;9.242;2022-10-16T16:24:49;25.20;53.30
21502;DHT22;27639;48.674;9.242;2022-10-16T16:27:15;25.20;53.50
21502;DHT22;27639;48.674;9.242;2022-10-16T16:29:40;25.10;53.30
21502;DHT22;27639;48.674;9.242;2022-10-16T16:32:06;25.00;53.40
21502;DHT22;27639;48.674;9.242;2022-10-16T16:34:31;25.00;53.60
21502;DHT22;27639;48.674;9.242;2022-10-16T16:36:57;24.90;53.80
21502;DHT22;27639;48.674;9.242;2022-10-16T16:39:23;24.80;54.00
21502;DHT22;27639;48.674;9.242;2022-10-16T16:41:49;24.70;54.10
21502;DHT22;27639;48.674;9.242;2022-10-16T16:44:16;24.70;54.30
21502;DHT22;27639;48.674;9.242;2022-10-16T16:46:43;24.60;54.40
21502;DHT22;27639;48.674;9.242;2022-10-16T16:49:13;24.40;54.60
21502;DHT22;27639;48.674;9.242;2022-10-16T16:51:40;24.40;54.60
21502;DHT22;27639;48.674;9.242;2022-10-16T16:54:06;24.30;54.80
21502;DHT22;27639;48.674;9.242;2022-10-16T16:56:42;24.20;54.80
21502;DHT22;27639;48.674;9.242;2022-10-16T16:59:16;24.10;55.10
21502;DHT22;27639;48.674;9.242;2022-10-16T17:01:43;24.00;55.20
21502;DHT22;27639;48.674;9.242;2022-10-16T17:04:09;24.00;55.40
21502;DHT22;27639;48.674;9.242;2022-10-16T17:06:40;23.90;55.50
21502;DHT22;27639;48.674;9.242;2022-10-16T17:09:06;23.80;55.50
21502;DHT22;27639;48.674;9.242;2022-10-16T17:11:33;23.70;55.60
21502;DHT22;27639;48.674;9.242;2022-10-16T17:13:59;23.70;55.90
21502;DHT22;27639;48.674;9.242;2022-10-16T17:16:29;23.70;55.90
21502;DHT22;27639;48.674;9.242;2022-10-16T17:18:55;23.60;56.00
21502;DHT22;27639;48.674;9.242;2022-10-16T17:21:21;23.60;56.20
21502;DHT22;27639;48.674;9.242;2022-10-16T17:23:47;23.50;56.10
21502;DHT22;27639;48.674;9.242;2022-10-16T17:26:16;23.50;56.20
21502;DHT22;27639;48.674;9.242;2022-10-16T17:28:42;23.50;56.30
21502;DHT22;27639;48.674;9.242;2022-10-16T17:31:09;23.50;56.30
21502;DHT22;27639;48.674;9.242;2022-10-16T17:33:37;23.50;57.10
21502;DHT22;27639;48.674;9.242;2022-10-16T17:36:03;23.50;56.50
21502;DHT22;27639;48.674;9.242;2022-10-16T17:38:29;23.40;56.60
21502;DHT22;27639;48.674;9.242;2022-10-16T17:40:55;23.40;56.70
21502;DHT22;27639;48.674;9.242;2022-10-16T17:43:20;23.40;56.80
21502;DHT22;27639;48.674;9.242;2022-10-16T17:45:46;23.40;56.90
21502;DHT22;27639;48.674;9.242;2022-10-16T17:48:12;23.30;57.00
21502;DHT22;27639;48.674;9.242;2022-10-16T17:50:41;23.30;57.10